createdAt,value
2018-08-11T18:08:37.288Z,36.18
2018-08-11T18:09:37.313Z,35.16
2018-08-11T18:10:37.292Z,35.58
2018-08-11T18:11:37.281Z,35.58
2018-08-11T18:12:37.259Z,34.38
2018-08-11T18:13:37.358Z,34.08
2018-08-11T18:14:37.290Z,35.58
2018-08-11T18:15:37.249Z,35.18
2018-08-11T18:16:37.225Z,34.98
2018-08-11T18:17:37.223Z,35.38
2018-08-11T18:18:37.228Z,35.28
2018-08-11T18:19:37.240Z,35.48
2018-08-11T18:20:37.182Z,35.18
2018-08-11T18:21:37.194Z,35.78
2018-08-11T18:22:37.178Z,36.47
2018-08-11T18:23:37.205Z,35.66
2018-08-11T18:24:37.140Z,36.28
2018-08-11T18:25:37.154Z,35.38
2018-08-11T18:26:44.104Z,35.28
2018-08-11T18:27:37.103Z,35.68
2018-08-11T18:28:37.136Z,35.48
2018-08-11T18:29:37.085Z,35.49
2018-08-11T18:30:37.076Z,35.80
2018-08-11T18:31:37.062Z,35.60
2018-08-11T18:32:37.051Z,35.60
2018-08-11T18:33:37.080Z,36.49
2018-08-11T18:34:37.047Z,36.01
2018-08-11T18:35:37.028Z,36.21
2018-08-11T18:36:37.012Z,37.51
2018-08-11T18:37:37.007Z,37.31
2018-08-11T18:38:37.054Z,37.63
2018-08-11T18:39:36.991Z,37.53
2018-08-11T18:40:36.974Z,36.93
2018-08-11T18:41:36.984Z,37.13
2018-08-11T18:42:36.970Z,37.93
2018-08-11T18:43:36.958Z,37.43
2018-08-11T18:44:36.962Z,38.83
2018-08-11T18:45:36.913Z,37.45
2018-08-11T18:46:36.904Z,38.05
2018-08-11T18:47:36.912Z,37.85
2018-08-11T18:48:36.905Z,38.75
2018-08-11T18:49:36.878Z,38.75
2018-08-11T18:50:36.858Z,38.27
2018-08-11T18:51:36.849Z,39.47
2018-08-11T18:52:36.845Z,40.07
2018-08-11T18:53:36.827Z,40.17
2018-08-11T18:54:36.849Z,39.67
2018-08-11T18:55:36.811Z,40.17
2018-08-11T18:56:36.813Z,40.59
2018-08-11T18:57:36.785Z,40.89
2018-08-11T18:58:36.778Z,41.69
2018-08-11T18:59:36.769Z,41.49
2018-08-11T19:00:36.781Z,41.51
2018-08-11T19:01:36.736Z,41.61
2018-08-11T19:02:36.736Z,41.53
2018-08-11T19:03:36.721Z,41.53
2018-08-11T19:04:36.871Z,41.83
2018-08-11T19:05:36.646Z,41.65
2018-08-11T19:06:36.732Z,41.74
2018-08-11T19:07:36.672Z,41.93
2018-08-11T19:08:36.661Z,43.16
2018-08-11T19:09:36.684Z,43.26
2018-08-11T19:10:36.648Z,43.06
2018-08-11T19:11:36.646Z,43.46
2018-08-11T19:12:36.616Z,43.76
2018-08-11T19:13:36.601Z,44.26
2018-08-11T19:14:36.706Z,44.08
2018-08-11T19:15:36.593Z,43.68
2018-08-11T19:16:36.574Z,44.81
2018-08-11T19:17:36.577Z,43.90
2018-08-11T19:18:36.550Z,44.60
2018-08-11T19:19:36.581Z,44.71
2018-08-11T19:20:36.530Z,45.10
2018-08-11T19:21:36.532Z,45.41
2018-08-11T19:22:36.505Z,45.43
2018-08-11T19:23:36.497Z,45.61
2018-08-11T19:24:36.516Z,46.34
2018-08-11T19:25:36.623Z,45.63
2018-08-11T19:26:36.513Z,46.23
2018-08-11T19:27:36.460Z,46.64
2018-08-11T19:28:36.437Z,46.23
2018-08-11T19:29:36.452Z,46.34
2018-08-11T19:30:36.432Z,46.96
2018-08-11T19:31:36.410Z,46.66
2018-08-11T19:32:36.422Z,46.98
2018-08-11T19:33:36.381Z,47.66
2018-08-11T19:34:36.389Z,46.98
2018-08-11T19:35:36.388Z,47.89
2018-08-11T19:36:36.351Z,47.79
2018-08-11T19:37:36.373Z,47.89
2018-08-11T19:38:36.350Z,48.19
2018-08-11T19:39:36.304Z,48.01
2018-08-11T19:40:36.319Z,48.52
2018-08-11T19:41:36.302Z,47.71
2018-08-11T19:42:36.319Z,47.91
2018-08-11T19:43:36.290Z,48.01
2018-08-11T19:44:36.297Z,48.11
2018-08-11T19:45:36.252Z,48.61
2018-08-11T19:46:36.355Z,49.24
2018-08-11T19:47:36.242Z,48.54
2018-08-11T19:48:36.220Z,49.04
2018-08-11T19:49:36.248Z,49.04
2018-08-11T19:50:36.213Z,48.61
2018-08-11T19:51:36.208Z,48.94
2018-08-11T19:52:36.176Z,49.15
2018-08-11T19:53:36.184Z,49.24
2018-08-11T19:54:36.130Z,48.56
2018-08-11T19:55:36.148Z,49.37
2018-08-11T19:56:36.133Z,48.96
2018-08-11T19:57:36.130Z,49.97
2018-08-11T19:58:36.125Z,50.27
2018-08-11T19:59:36.092Z,50.76
2018-08-11T20:00:36.102Z,48.54
2018-08-11T20:01:36.111Z,48.82
2018-08-11T20:02:36.070Z,48.84
2018-08-11T20:03:36.160Z,48.64
2018-08-11T20:04:36.086Z,48.96
2018-08-11T20:05:36.050Z,49.16
2018-08-11T20:06:36.025Z,50.48
2018-08-11T20:07:36.022Z,50.68
2018-08-11T20:08:36.012Z,50.10
2018-08-11T20:09:36.153Z,50.20
2018-08-11T20:10:35.988Z,50.50
2018-08-11T20:11:35.929Z,50.73
2018-08-11T20:12:36.029Z,50.93
2018-08-11T20:13:35.907Z,50.62
2018-08-11T20:14:35.973Z,50.93
2018-08-11T20:15:35.929Z,50.73
2018-08-11T20:16:35.915Z,50.32
2018-08-11T20:17:35.922Z,50.73
2018-08-11T20:18:35.906Z,51.84
2018-08-11T20:19:35.941Z,52.06
2018-08-11T20:20:35.885Z,51.86
2018-08-11T20:21:35.883Z,52.36
2018-08-11T20:22:35.868Z,52.06
2018-08-11T20:23:35.864Z,52.36
2018-08-11T20:24:35.831Z,52.67
2018-08-11T20:25:35.995Z,52.06
2018-08-11T20:26:35.772Z,52.67
2018-08-11T20:27:35.806Z,52.87
2018-08-11T20:28:35.790Z,53.00
2018-08-11T20:29:35.797Z,53.17
2018-08-11T20:30:35.788Z,53.09
2018-08-11T20:31:35.753Z,52.39
2018-08-11T20:32:35.786Z,53.20
2018-08-11T20:33:35.800Z,53.09
2018-08-11T20:34:35.739Z,52.61
2018-08-11T20:35:35.760Z,53.09
2018-08-11T20:36:35.701Z,52.92
2018-08-11T20:37:35.701Z,53.20
2018-08-11T20:38:35.675Z,53.20
2018-08-11T20:39:35.667Z,53.09
2018-08-11T20:40:35.640Z,53.20
2018-08-11T20:41:35.647Z,52.97
2018-08-11T20:42:35.641Z,52.79
2018-08-11T20:43:35.641Z,53.09
2018-08-11T20:44:35.632Z,53.17
2018-08-11T20:45:35.577Z,53.38
2018-08-11T20:46:35.593Z,52.34
2018-08-11T20:47:35.581Z,52.54
2018-08-11T20:48:35.524Z,52.16
2018-08-11T20:49:35.568Z,53.17
2018-08-11T20:50:35.589Z,53.00
2018-08-11T20:51:35.534Z,52.89
2018-08-11T20:52:35.473Z,52.59
2018-08-11T20:53:35.529Z,52.79
2018-08-11T20:54:35.503Z,53.52
2018-08-11T20:55:35.514Z,53.63
2018-08-11T20:56:35.481Z,54.25
2018-08-11T20:57:35.484Z,54.36
2018-08-11T20:58:35.425Z,53.93
2018-08-11T20:59:35.452Z,53.65
2018-08-11T21:00:35.494Z,54.76
2018-08-11T21:01:35.424Z,54.96
2018-08-11T21:02:35.440Z,54.66
2018-08-11T21:03:35.404Z,54.66
2018-08-11T21:04:35.425Z,54.86
2018-08-11T21:05:35.407Z,55.07
2018-08-11T21:06:35.417Z,54.66
2018-08-11T21:07:35.358Z,55.07
2018-08-11T21:08:35.345Z,55.29
2018-08-11T21:09:35.349Z,55.60
2018-08-11T21:10:35.355Z,55.80
2018-08-11T21:11:35.331Z,55.69
2018-08-11T21:12:35.391Z,56.02
2018-08-11T21:13:35.297Z,55.62
2018-08-11T21:14:35.300Z,56.43
2018-08-11T21:15:35.292Z,56.63
2018-08-11T21:16:35.219Z,56.63
2018-08-11T21:17:35.265Z,56.13
2018-08-11T21:18:35.265Z,55.73
2018-08-11T21:19:35.231Z,56.43
2018-08-11T21:20:35.244Z,55.82
2018-08-11T21:21:35.215Z,56.05
2018-08-11T21:22:35.195Z,55.82
2018-08-11T21:23:35.185Z,55.52
2018-08-11T21:24:35.170Z,55.82
2018-08-11T21:25:35.182Z,55.42
2018-08-11T21:26:35.170Z,55.42
2018-08-11T21:27:35.143Z,56.02
2018-08-11T21:28:35.131Z,55.65
2018-08-11T21:29:35.117Z,56.86
2018-08-11T21:30:35.129Z,57.17
2018-08-11T21:31:35.092Z,57.47
2018-08-11T21:32:35.079Z,57.07
2018-08-11T21:33:35.067Z,57.70
2018-08-11T21:34:35.067Z,57.67
2018-08-11T21:35:35.077Z,57.70
2018-08-11T21:36:35.082Z,58.61
2018-08-11T21:37:35.042Z,58.81
2018-08-11T21:38:35.027Z,58.20
2018-08-11T21:39:35.010Z,58.20
2018-08-11T21:40:35.024Z,58.11
2018-08-11T21:41:34.939Z,58.20
2018-08-11T21:42:35.002Z,58.20
2018-08-11T21:43:34.973Z,58.11
2018-08-11T21:44:34.960Z,57.90
2018-08-11T21:45:35.154Z,58.20
2018-08-11T21:46:34.941Z,58.11
2018-08-11T21:47:34.920Z,57.90
2018-08-11T21:48:34.923Z,58.11
2018-08-11T21:49:34.890Z,59.01
2018-08-11T21:50:34.890Z,59.52
2018-08-11T21:51:34.853Z,59.22
2018-08-11T21:52:34.909Z,58.44
2018-08-11T21:53:34.810Z,58.94
2018-08-11T21:54:34.849Z,59.05
2018-08-11T21:55:34.821Z,58.23
2018-08-11T21:56:34.885Z,58.23
2018-08-11T21:57:34.819Z,58.84
2018-08-11T21:58:34.803Z,58.23
2018-08-11T21:59:34.791Z,57.73
2018-08-11T22:00:34.769Z,57.80
2018-08-11T22:01:34.796Z,58.03
2018-08-11T22:02:34.753Z,58.03
2018-08-11T22:03:34.751Z,57.83
2018-08-11T22:04:34.739Z,57.73
2018-08-11T22:05:34.737Z,57.93
2018-08-11T22:06:34.750Z,58.03
2018-08-11T22:07:34.692Z,58.47
2018-08-11T22:08:34.679Z,58.16
2018-08-11T22:09:34.770Z,58.67
2018-08-11T22:10:34.665Z,59.17
2018-08-11T22:11:34.845Z,58.67
2018-08-11T22:12:34.655Z,59.07
2018-08-11T22:13:34.636Z,59.78
2018-08-11T22:14:34.685Z,60.89
2018-08-11T22:15:34.662Z,60.19
2018-08-11T22:16:34.628Z,60.62
2018-08-11T22:17:34.591Z,60.82
2018-08-11T22:18:34.577Z,60.31
2018-08-11T22:19:34.578Z,60.31
2018-08-11T22:20:34.567Z,60.72
2018-08-11T22:21:34.629Z,60.11
2018-08-11T22:22:34.688Z,60.52
2018-08-11T22:23:34.525Z,60.52
2018-08-11T22:24:34.517Z,59.61
2018-08-11T22:25:34.501Z,60.62
2018-08-11T22:26:34.516Z,60.21
2018-08-11T22:27:34.476Z,60.72
2018-08-11T22:28:34.473Z,60.93
2018-08-11T22:29:34.407Z,60.93
2018-08-11T22:30:34.443Z,60.65
2018-08-11T22:31:34.449Z,60.93
2018-08-11T22:32:34.421Z,60.42
2018-08-11T22:33:34.430Z,61.36
2018-08-11T22:34:34.421Z,61.53
2018-08-11T22:35:34.399Z,62.24
2018-08-11T22:36:34.393Z,61.97
2018-08-11T22:37:34.358Z,62.27
2018-08-11T22:38:34.361Z,62.37
2018-08-11T22:39:34.315Z,62.37
2018-08-11T22:40:34.325Z,62.37
2018-08-11T22:41:34.346Z,62.68
2018-08-11T22:42:34.313Z,62.37
2018-08-11T22:43:34.307Z,63.39
2018-08-11T22:44:34.293Z,62.37
2018-08-11T22:45:34.339Z,62.27
2018-08-11T22:46:34.305Z,62.48
2018-08-11T22:47:34.308Z,62.48
2018-08-11T22:48:34.351Z,61.97
2018-08-11T22:49:34.322Z,61.66
2018-08-11T22:50:34.256Z,61.76
2018-08-11T22:51:34.192Z,61.25
2018-08-11T22:52:34.197Z,61.56
2018-08-11T22:53:34.194Z,61.87
2018-08-11T22:54:34.174Z,62.27
2018-08-11T22:55:34.187Z,61.97
2018-08-11T22:56:34.195Z,61.59
2018-08-11T22:57:34.146Z,62.40
2018-08-11T22:58:34.126Z,62.20
2018-08-11T22:59:34.134Z,62.60
2018-08-11T23:00:34.117Z,62.81
2018-08-11T23:01:34.136Z,63.42
2018-08-11T23:02:34.112Z,63.42
2018-08-11T23:03:34.079Z,63.62
2018-08-11T23:04:34.027Z,63.21
2018-08-11T23:05:34.057Z,63.52
2018-08-11T23:06:34.087Z,63.34
2018-08-11T23:07:34.031Z,64.06
2018-08-11T23:08:34.147Z,63.55
2018-08-11T23:09:41.047Z,63.32
2018-08-11T23:10:33.962Z,64.06
2018-08-11T23:11:34.022Z,64.13
2018-08-11T23:12:34.063Z,64.33
2018-08-11T23:13:33.962Z,63.45
2018-08-11T23:14:33.917Z,63.42
2018-08-11T23:15:33.944Z,63.72
2018-08-11T23:16:33.936Z,63.72
2018-08-11T23:17:33.955Z,63.85
2018-08-11T23:18:33.922Z,63.75
2018-08-11T23:19:34.123Z,63.75
2018-08-11T23:20:33.924Z,63.75
2018-08-11T23:21:33.894Z,63.24
2018-08-11T23:22:34.050Z,63.32
2018-08-11T23:23:33.896Z,62.33
2018-08-11T23:24:33.855Z,63.34
2018-08-11T23:25:33.797Z,63.85
2018-08-11T23:26:33.852Z,63.65
2018-08-11T23:27:33.848Z,63.14
2018-08-11T23:28:33.816Z,63.65
2018-08-11T23:29:33.820Z,63.65
2018-08-11T23:30:33.782Z,63.95
2018-08-11T23:31:33.725Z,64.26
2018-08-11T23:32:33.781Z,64.06
2018-08-11T23:33:33.748Z,64.67
2018-08-11T23:34:33.734Z,64.46
2018-08-11T23:35:33.729Z,64.76
2018-08-11T23:36:33.712Z,65.48
2018-08-11T23:37:33.727Z,65.48
2018-08-11T23:38:33.699Z,65.17
2018-08-11T23:39:33.691Z,65.41
2018-08-11T23:40:33.678Z,65.41
2018-08-11T23:41:33.623Z,64.97
2018-08-11T23:42:33.673Z,65.51
2018-08-11T23:43:33.652Z,64.70
2018-08-11T23:44:33.645Z,64.59
2018-08-11T23:45:33.617Z,64.39
2018-08-11T23:46:33.609Z,64.29
2018-08-11T23:47:33.594Z,64.49
2018-08-11T23:48:33.582Z,64.79
2018-08-11T23:49:33.584Z,64.79
2018-08-11T23:50:33.575Z,64.59
2018-08-11T23:51:33.564Z,64.09
2018-08-11T23:52:33.562Z,64.59
2018-08-11T23:53:33.536Z,64.70
2018-08-11T23:54:33.529Z,64.70
2018-08-11T23:55:33.520Z,64.90
2018-08-11T23:56:33.503Z,65.30
2018-08-11T23:57:33.510Z,65.41
2018-08-11T23:58:33.613Z,65.51
2018-08-11T23:59:33.466Z,65.91
